sensor_id;sensor_type;location;lat;lon;timestamp;temperature;humidity
19888;DHT22;10106;51.332;12.336;2023-01-29T00:01:26;-2.10;99.90
19888;DHT22;10106;51.332;12.336;2023-01-29T00:03:52;-2.10;99.90
19888;DHT22;10106;51.332;12.336;2023-01-29T00:06:18;-2.10;99.90
19888;DHT22;10106;51.332;12.336;2023-01-29T00:08:43;-2.20;99.90
19888;DHT22;10106;51.332;12.336;2023-01-29T00:11:09;-2.20;99.90
19888;DHT22;10106;51.332;12.336;2023-01-29T00:13:35;-2.30;99.90
19888;DHT22;10106;51.332;12.336;2023-01-29T00:16:01;-2.30;99.90
19888;DHT22;10106;51.332;12.336;2023-01-29T00:18:28;-2.30;99.90
19888;DHT22;10106;51.332;12.336;2023-01-29T00:20:54;-2.30;99.90
19888;DHT22;10106;51.332;12.336;2023-01-29T00:23:21;-2.30;99.90
19888;DHT22;10106;51.332;12.336;2023-01-29T00:25:47;-2.30;99.90
19888;DHT22;10106;51.332;12.336;2023-01-29T00:28:12;-2.30;99.90
19888;DHT22;10106;51.332;12.336;2023-01-29T00:30:39;-2.30;99.90
19888;DHT22;10106;51.332;12.336;2023-01-29T00:33:04;-2.30;99.90
19888;DHT22;10106;51.332;12.336;2023-01-29T00:35:31;-2.30;99.90
19888;DHT22;10106;51.332;12.336;2023-01-29T00:37:57;-2.30;99.90
19888;DHT22;10106;51.332;12.336;2023-01-29T00:40:23;-2.40;99.90
19888;DHT22;10106;51.332;12.336;2023-01-29T00:42:49;-2.40;99.90
19888;DHT22;10106;51.332;12.336;2023-01-29T00:45:34;-2.50;99.90
19888;DHT22;10106;51.332;12.336;2023-01-29T00:48:02;-2.50;99.90
19888;DHT22;10106;51.332;12.336;2023-01-29T00:50:27;-2.50;99.90
19888;DHT22;10106;51.332;12.336;2023-01-29T00:52:53;-2.50;99.90
19888;DHT22;10106;51.332;12.336;2023-01-29T00:55:19;-2.60;99.90
19888;DHT22;10106;51.332;12.336;2023-01-29T00:57:45;-2.60;99.90
19888;DHT22;10106;51.332;12.336;2023-01-29T01:00:14;-2.60;99.90
19888;DHT22;10106;51.332;12.336;2023-01-29T01:02:40;-2.60;99.90
19888;DHT22;10106;51.332;12.336;2023-01-29T01:05:24;-2.60;99.90
19888;DHT22;10106;51.332;12.336;2023-01-29T01:07:52;-2.60;99.90
19888;DHT22;10106;51.332;12.336;2023-01-29T01:10:24;-2.60;99.90
19888;DHT22;10106;51.332;12.336;2023-01-29T01:12:54;-2.60;99.90
19888;DHT22;10106;51.332;12.336;2023-01-29T01:15:22;-2.60;99.90
19888;DHT22;10106;51.332;12.336;2023-01-29T01:17:54;-2.60;99.90
19888;DHT22;10106;51.332;12.336;2023-01-29T01:20:21;-2.70;99.90
19888;DHT22;10106;51.332;12.336;2023-01-29T01:22:47;-2.70;99.90
19888;DHT22;10106;51.332;12.336;2023-01-29T01:25:13;-2.80;99.90
19888;DHT22;10106;51.332;12.336;2023-01-29T01:27:40;-2.90;99.90
19888;DHT22;10106;51.332;12.336;2023-01-29T01:30:11;-2.80;99.90
19888;DHT22;10106;51.332;12.336;2023-01-29T01:32:38;-2.90;99.90
19888;DHT22;10106;51.332;12.336;2023-01-29T01:35:04;-2.90;99.90
19888;DHT22;10106;51.332;12.336;2023-01-29T01:37:30;-2.80;99.90
19888;DHT22;10106;51.332;12.336;2023-01-29T01:39:55;-2.80;99.90
19888;DHT22;10106;51.332;12.336;2023-01-29T01:42:29;-2.80;99.90
19888;DHT22;10106;51.332;12.336;2023-01-29T01:45:00;-2.80;99.90
19888;DHT22;10106;51.332;12.336;2023-01-29T01:47:42;-2.80;99.90
19888;DHT22;10106;51.332;12.336;2023-01-29T01:53:11;-2.80;99.90
19888;DHT22;10106;51.332;12.336;2023-01-29T01:55:49;-2.80;99.90
19888;DHT22;10106;51.332;12.336;2023-01-29T01:58:31;-2.80;99.90
19888;DHT22;10106;51.332;12.336;2023-01-29T02:00:58;-2.90;99.90
19888;DHT22;10106;51.332;12.336;2023-01-29T02:03:26;-2.90;99.90
19888;DHT22;10106;51.332;12.336;2023-01-29T02:06:11;-2.90;99.90
19888;DHT22;10106;51.332;12.336;2023-01-29T02:09:03;-3.00;99.90
19888;DHT22;10106;51.332;12.336;2023-01-29T02:11:49;-3.00;99.90
19888;DHT22;10106;51.332;12.336;2023-01-29T02:14:15;-3.00;99.90
19888;DHT22;10106;51.332;12.336;2023-01-29T02:16:40;-3.00;99.90
19888;DHT22;10106;51.332;12.336;2023-01-29T02:19:15;-3.00;99.90
19888;DHT22;10106;51.332;12.336;2023-01-29T02:24:31;-3.00;99.90
19888;DHT22;10106;51.332;12.336;2023-01-29T02:27:08;-3.10;99.90
19888;DHT22;10106;51.332;12.336;2023-01-29T02:29:53;-3.00;99.90
19888;DHT22;10106;51.332;12.336;2023-01-29T02:32:39;-3.00;99.90
19888;DHT22;10106;51.332;12.336;2023-01-29T02:38:16;-3.00;99.90
19888;DHT22;10106;51.332;12.336;2023-01-29T02:40:49;-3.00;99.90
19888;DHT22;10106;51.332;12.336;2023-01-29T02:48:39;-3.00;99.90
19888;DHT22;10106;51.332;12.336;2023-01-29T02:51:12;-3.00;99.90
19888;DHT22;10106;51.332;12.336;2023-01-29T02:56:28;-3.00;99.90
19888;DHT22;10106;51.332;12.336;2023-01-29T02:59:03;-3.00;99.90
19888;DHT22;10106;51.332;12.336;2023-01-29T03:01:47;-3.00;99.90
19888;DHT22;10106;51.332;12.336;2023-01-29T03:04:17;-3.00;99.90
19888;DHT22;10106;51.332;12.336;2023-01-29T03:06:57;-3.00;99.90
19888;DHT22;10106;51.332;12.336;2023-01-29T03:09:43;-3.00;99.90
19888;DHT22;10106;51.332;12.336;2023-01-29T03:12:24;-3.00;99.90
19888;DHT22;10106;51.332;12.336;2023-01-29T03:15:00;-3.10;99.90
19888;DHT22;10106;51.332;12.336;2023-01-29T03:17:53;-3.10;99.90
19888;DHT22;10106;51.332;12.336;2023-01-29T03:20:23;-3.10;99.90
19888;DHT22;10106;51.332;12.336;2023-01-29T03:22:58;-3.10;99.90
19888;DHT22;10106;51.332;12.336;2023-01-29T03:25:27;-3.10;99.90
19888;DHT22;10106;51.332;12.336;2023-01-29T03:28:15;-3.10;99.90
19888;DHT22;10106;51.332;12.336;2023-01-29T03:31:06;-3.10;99.90
19888;DHT22;10106;51.332;12.336;2023-01-29T03:34:02;-3.10;99.90
19888;DHT22;10106;51.332;12.336;2023-01-29T03:39:06;-3.10;99.90
19888;DHT22;10106;51.332;12.336;2023-01-29T03:41:35;-3.10;99.90
19888;DHT22;10106;51.332;12.336;2023-01-29T03:44:18;-3.20;99.90
19888;DHT22;10106;51.332;12.336;2023-01-29T03:47:02;-3.20;99.90
19888;DHT22;10106;51.332;12.336;2023-01-29T03:52:20;-3.20;99.90
19888;DHT22;10106;51.332;12.336;2023-01-29T03:55:26;-3.20;99.90
19888;DHT22;10106;51.332;12.336;2023-01-29T03:58:33;-3.20;99.90
19888;DHT22;10106;51.332;12.336;2023-01-29T04:01:11;-3.30;99.90
19888;DHT22;10106;51.332;12.336;2023-01-29T04:03:43;-3.20;99.90
19888;DHT22;10106;51.332;12.336;2023-01-29T04:06:17;-3.30;99.90
19888;DHT22;10106;51.332;12.336;2023-01-29T04:09:14;-3.20;99.90
19888;DHT22;10106;51.332;12.336;2023-01-29T04:11:47;-3.30;99.90
19888;DHT22;10106;51.332;12.336;2023-01-29T04:14:14;-3.30;99.90
19888;DHT22;10106;51.332;12.336;2023-01-29T04:16:45;-3.30;99.90
19888;DHT22;10106;51.332;12.336;2023-01-29T04:19:11;-3.30;99.90
19888;DHT22;10106;51.332;12.336;2023-01-29T04:21:37;-3.20;99.90
19888;DHT22;10106;51.332;12.336;2023-01-29T04:24:05;-3.10;99.90
19888;DHT22;10106;51.332;12.336;2023-01-29T04:32:10;-3.00;99.90
19888;DHT22;10106;51.332;12.336;2023-01-29T04:39:53;-3.00;99.90
19888;DHT22;10106;51.332;12.336;2023-01-29T04:42:36;-3.10;99.90
19888;DHT22;10106;51.332;12.336;2023-01-29T04:46:02;-3.10;99.90
19888;DHT22;10106;51.332;12.336;2023-01-29T04:51:11;-3.00;99.90
19888;DHT22;10106;51.332;12.336;2023-01-29T04:56:34;-2.90;99.90
19888;DHT22;10106;51.332;12.336;2023-01-29T04:59:05;-2.90;99.90
19888;DHT22;10106;51.332;12.336;2023-01-29T05:01:32;-2.90;99.90
19888;DHT22;10106;51.332;12.336;2023-01-29T05:04:04;-2.90;99.90
19888;DHT22;10106;51.332;12.336;2023-01-29T05:06:31;-2.90;99.90
19888;DHT22;10106;51.332;12.336;2023-01-29T05:08:58;-2.90;99.90
19888;DHT22;10106;51.332;12.336;2023-01-29T05:11:25;-2.90;99.90
19888;DHT22;10106;51.332;12.336;2023-01-29T05:13:51;-2.90;99.90
19888;DHT22;10106;51.332;12.336;2023-01-29T05:16:28;-2.80;99.90
19888;DHT22;10106;51.332;12.336;2023-01-29T05:19:08;-2.80;99.90
19888;DHT22;10106;51.332;12.336;2023-01-29T05:21:33;-2.80;99.90
19888;DHT22;10106;51.332;12.336;2023-01-29T05:26:35;-2.60;99.90
19888;DHT22;10106;51.332;12.336;2023-01-29T05:29:20;-2.70;99.90
19888;DHT22;10106;51.332;12.336;2023-01-29T05:31:46;-2.60;99.90
19888;DHT22;10106;51.332;12.336;2023-01-29T05:34:11;-2.60;99.90
19888;DHT22;10106;51.332;12.336;2023-01-29T05:36:37;-2.60;99.90
19888;DHT22;10106;51.332;12.336;2023-01-29T05:39:03;-2.60;99.90
19888;DHT22;10106;51.332;12.336;2023-01-29T05:41:29;-2.50;99.90
19888;DHT22;10106;51.332;12.336;2023-01-29T05:43:54;-2.50;99.90
19888;DHT22;10106;51.332;12.336;2023-01-29T05:46:20;-2.50;99.90
19888;DHT22;10106;51.332;12.336;2023-01-29T05:48:45;-2.50;99.90
19888;DHT22;10106;51.332;12.336;2023-01-29T05:51:11;-2.50;99.90
19888;DHT22;10106;51.332;12.336;2023-01-29T05:53:37;-2.50;99.90
19888;DHT22;10106;51.332;12.336;2023-01-29T05:56:03;-2.40;99.90
19888;DHT22;10106;51.332;12.336;2023-01-29T05:58:30;-2.40;99.90
19888;DHT22;10106;51.332;12.336;2023-01-29T06:06:07;-2.40;99.90
19888;DHT22;10106;51.332;12.336;2023-01-29T06:08:33;-2.30;99.90
19888;DHT22;10106;51.332;12.336;2023-01-29T06:10:59;-2.30;99.90
19888;DHT22;10106;51.332;12.336;2023-01-29T06:13:25;-2.30;99.90
19888;DHT22;10106;51.332;12.336;2023-01-29T06:15:50;-2.30;99.90
19888;DHT22;10106;51.332;12.336;2023-01-29T06:18:16;-2.30;99.90
19888;DHT22;10106;51.332;12.336;2023-01-29T06:20:42;-2.20;99.90
19888;DHT22;10106;51.332;12.336;2023-01-29T06:23:08;-2.20;99.90
19888;DHT22;10106;51.332;12.336;2023-01-29T06:25:33;-2.20;99.90
19888;DHT22;10106;51.332;12.336;2023-01-29T06:27:59;-2.20;99.90
19888;DHT22;10106;51.332;12.336;2023-01-29T06:30:25;-2.20;99.90
19888;DHT22;10106;51.332;12.336;2023-01-29T06:32:55;-2.10;99.90
19888;DHT22;10106;51.332;12.336;2023-01-29T06:35:20;-2.10;99.90
19888;DHT22;10106;51.332;12.336;2023-01-29T06:37:46;-2.10;99.90
19888;DHT22;10106;51.332;12.336;2023-01-29T06:40:12;-2.00;99.90
19888;DHT22;10106;51.332;12.336;2023-01-29T06:42:38;-2.00;99.90
19888;DHT22;10106;51.332;12.336;2023-01-29T06:45:03;-1.90;99.90
19888;DHT22;10106;51.332;12.336;2023-01-29T06:47:29;-1.90;99.90
19888;DHT22;10106;51.332;12.336;2023-01-29T06:49:55;-1.90;99.90
19888;DHT22;10106;51.332;12.336;2023-01-29T06:52:21;-1.90;99.90
19888;DHT22;10106;51.332;12.336;2023-01-29T06:54:46;-1.80;99.90
19888;DHT22;10106;51.332;12.336;2023-01-29T06:57:12;-1.80;99.90
19888;DHT22;10106;51.332;12.336;2023-01-29T06:59:37;-1.80;99.90
19888;DHT22;10106;51.332;12.336;2023-01-29T07:02:03;-1.80;99.90
19888;DHT22;10106;51.332;12.336;2023-01-29T07:04:29;-1.70;99.90
19888;DHT22;10106;51.332;12.336;2023-01-29T07:06:55;-1.70;99.90
19888;DHT22;10106;51.332;12.336;2023-01-29T07:09:20;-1.70;99.90
19888;DHT22;10106;51.332;12.336;2023-01-29T07:11:46;-1.70;99.90
19888;DHT22;10106;51.332;12.336;2023-01-29T07:14:12;-1.70;99.90
19888;DHT22;10106;51.332;12.336;2023-01-29T07:16:38;-1.70;99.90
19888;DHT22;10106;51.332;12.336;2023-01-29T07:19:03;-1.60;99.90
19888;DHT22;10106;51.332;12.336;2023-01-29T07:21:29;-1.60;99.90
19888;DHT22;10106;51.332;12.336;2023-01-29T07:23:55;-1.60;99.90
19888;DHT22;10106;51.332;12.336;2023-01-29T07:26:20;-1.60;99.90
19888;DHT22;10106;51.332;12.336;2023-01-29T07:28:46;-1.60;99.90
19888;DHT22;10106;51.332;12.336;2023-01-29T07:31:13;-1.50;99.90
19888;DHT22;10106;51.332;12.336;2023-01-29T07:33:39;-1.50;99.90
19888;DHT22;10106;51.332;12.336;2023-01-29T07:36:08;-1.40;99.90
19888;DHT22;10106;51.332;12.336;2023-01-29T07:38:33;-1.40;99.90
19888;DHT22;10106;51.332;12.336;2023-01-29T07:40:59;-1.30;99.90
19888;DHT22;10106;51.332;12.336;2023-01-29T07:43:25;-1.20;99.90
19888;DHT22;10106;51.332;12.336;2023-01-29T07:45:50;-1.00;99.90
19888;DHT22;10106;51.332;12.336;2023-01-29T07:48:16;-0.90;99.90
19888;DHT22;10106;51.332;12.336;2023-01-29T07:50:42;-0.80;99.90
19888;DHT22;10106;51.332;12.336;2023-01-29T07:53:12;-0.90;99.90
19888;DHT22;10106;51.332;12.336;2023-01-29T07:55:39;-0.90;99.90
19888;DHT22;10106;51.332;12.336;2023-01-29T07:58:04;-1.00;99.90
19888;DHT22;10106;51.332;12.336;2023-01-29T08:00:31;-1.00;99.90
19888;DHT22;10106;51.332;12.336;2023-01-29T08:03:11;-1.00;99.90
19888;DHT22;10106;51.332;12.336;2023-01-29T08:05:36;-0.90;99.90
19888;DHT22;10106;51.332;12.336;2023-01-29T08:08:03;-0.90;99.90
19888;DHT22;10106;51.332;12.336;2023-01-29T08:10:28;-0.90;99.90
19888;DHT22;10106;51.332;12.336;2023-01-29T08:12:56;-0.90;99.90
19888;DHT22;10106;51.332;12.336;2023-01-29T08:15:22;-0.90;99.90
19888;DHT22;10106;51.332;12.336;2023-01-29T08:17:48;-0.80;99.90
19888;DHT22;10106;51.332;12.336;2023-01-29T08:20:14;-0.90;99.90
19888;DHT22;10106;51.332;12.336;2023-01-29T08:22:40;-0.90;99.90
19888;DHT22;10106;51.332;12.336;2023-01-29T08:25:05;-0.70;99.90
19888;DHT22;10106;51.332;12.336;2023-01-29T08:27:31;-0.60;99.90
19888;DHT22;10106;51.332;12.336;2023-01-29T08:29:57;-0.50;99.90
19888;DHT22;10106;51.332;12.336;2023-01-29T08:32:22;-0.40;99.90
19888;DHT22;10106;51.332;12.336;2023-01-29T08:34:48;-0.30;99.90
19888;DHT22;10106;51.332;12.336;2023-01-29T08:37:14;-0.30;99.90
19888;DHT22;10106;51.332;12.336;2023-01-29T08:39:39;-0.40;99.90
19888;DHT22;10106;51.332;12.336;2023-01-29T08:42:05;-0.40;99.90
19888;DHT22;10106;51.332;12.336;2023-01-29T08:44:30;-0.40;99.90
19888;DHT22;10106;51.332;12.336;2023-01-29T08:46:56;-0.50;99.90
19888;DHT22;10106;51.332;12.336;2023-01-29T08:49:22;-0.50;99.90
19888;DHT22;10106;51.332;12.336;2023-01-29T08:51:47;-0.50;99.90
19888;DHT22;10106;51.332;12.336;2023-01-29T08:54:15;-0.50;99.90
19888;DHT22;10106;51.332;12.336;2023-01-29T08:56:41;-0.40;99.90
19888;DHT22;10106;51.332;12.336;2023-01-29T08:59:09;-0.50;99.90
19888;DHT22;10106;51.332;12.336;2023-01-29T09:01:34;-0.50;99.90
19888;DHT22;10106;51.332;12.336;2023-01-29T09:04:00;-0.40;99.90
19888;DHT22;10106;51.332;12.336;2023-01-29T09:06:26;-0.40;99.90
19888;DHT22;10106;51.332;12.336;2023-01-29T09:08:51;-0.30;99.90
19888;DHT22;10106;51.332;12.336;2023-01-29T09:11:17;-0.30;99.90
19888;DHT22;10106;51.332;12.336;2023-01-29T09:13:43;-0.30;99.90
19888;DHT22;10106;51.332;12.336;2023-01-29T09:16:08;-0.30;99.90
19888;DHT22;10106;51.332;12.336;2023-01-29T09:18:34;-0.30;99.90
19888;DHT22;10106;51.332;12.336;2023-01-29T09:21:00;-0.30;99.90
19888;DHT22;10106;51.332;12.336;2023-01-29T09:23:28;-0.30;99.90
19888;DHT22;10106;51.332;12.336;2023-01-29T09:25:55;-0.20;99.90
19888;DHT22;10106;51.332;12.336;2023-01-29T09:28:20;-0.20;99.90
19888;DHT22;10106;51.332;12.336;2023-01-29T09:30:49;-0.20;99.90
19888;DHT22;10106;51.332;12.336;2023-01-29T09:33:14;-0.20;99.90
19888;DHT22;10106;51.332;12.336;2023-01-29T09:35:41;-0.20;99.90
19888;DHT22;10106;51.332;12.336;2023-01-29T09:38:08;-0.20;99.90
19888;DHT22;10106;51.332;12.336;2023-01-29T09:40:37;-0.20;99.90
19888;DHT22;10106;51.332;12.336;2023-01-29T09:45:57;0.00;99.90
19888;DHT22;10106;51.332;12.336;2023-01-29T09:48:26;0.10;99.90
19888;DHT22;10106;51.332;12.336;2023-01-29T09:50:55;0.20;99.90
19888;DHT22;10106;51.332;12.336;2023-01-29T10:20:33;1.00;99.90
19888;DHT22;10106;51.332;12.336;2023-01-29T10:25:39;1.00;99.90
19888;DHT22;10106;51.332;12.336;2023-01-29T10:28:41;1.00;99.90
19888;DHT22;10106;51.332;12.336;2023-01-29T10:31:24;1.00;99.90
19888;DHT22;10106;51.332;12.336;2023-01-29T10:33:54;1.00;99.90
19888;DHT22;10106;51.332;12.336;2023-01-29T10:36:27;1.00;99.90
19888;DHT22;10106;51.332;12.336;2023-01-29T10:38:55;1.00;99.90
19888;DHT22;10106;51.332;12.336;2023-01-29T10:46:47;1.10;99.90
19888;DHT22;10106;51.332;12.336;2023-01-29T10:58:03;1.40;99.90
19888;DHT22;10106;51.332;12.336;2023-01-29T11:00:35;1.40;99.90
19888;DHT22;10106;51.332;12.336;2023-01-29T11:08:23;1.40;99.90
19888;DHT22;10106;51.332;12.336;2023-01-29T11:13:18;1.60;99.90
19888;DHT22;10106;51.332;12.336;2023-01-29T11:15:44;1.70;99.90
19888;DHT22;10106;51.332;12.336;2023-01-29T11:18:12;1.80;99.90
19888;DHT22;10106;51.332;12.336;2023-01-29T11:20:42;1.80;99.90
19888;DHT22;10106;51.332;12.336;2023-01-29T11:23:25;1.90;99.90
19888;DHT22;10106;51.332;12.336;2023-01-29T11:25:54;1.80;99.90
19888;DHT22;10106;51.332;12.336;2023-01-29T11:28:48;1.80;99.90
19888;DHT22;10106;51.332;12.336;2023-01-29T11:31:24;1.90;99.90
19888;DHT22;10106;51.332;12.336;2023-01-29T11:33:53;1.80;99.90
19888;DHT22;10106;51.332;12.336;2023-01-29T11:36:34;1.80;99.90
19888;DHT22;10106;51.332;12.336;2023-01-29T11:39:26;1.90;99.90
19888;DHT22;10106;51.332;12.336;2023-01-29T11:42:01;2.00;99.90
19888;DHT22;10106;51.332;12.336;2023-01-29T11:47:11;2.10;99.90
19888;DHT22;10106;51.332;12.336;2023-01-29T11:49:38;2.10;99.90
19888;DHT22;10106;51.332;12.336;2023-01-29T11:52:06;2.20;99.90
19888;DHT22;10106;51.332;12.336;2023-01-29T11:55:38;2.30;99.90
19888;DHT22;10106;51.332;12.336;2023-01-29T11:57:58;2.30;99.90
19888;DHT22;10106;51.332;12.336;2023-01-29T12:00:32;2.30;99.90
19888;DHT22;10106;51.332;12.336;2023-01-29T12:03:12;2.20;99.90
19888;DHT22;10106;51.332;12.336;2023-01-29T12:05:52;2.20;99.90
19888;DHT22;10106;51.332;12.336;2023-01-29T12:08:21;2.20;99.90
19888;DHT22;10106;51.332;12.336;2023-01-29T12:10:48;2.20;99.90
19888;DHT22;10106;51.332;12.336;2023-01-29T12:15:46;2.40;99.90
19888;DHT22;10106;51.332;12.336;2023-01-29T12:18:31;2.40;99.90
19888;DHT22;10106;51.332;12.336;2023-01-29T12:21:11;2.30;99.90
19888;DHT22;10106;51.332;12.336;2023-01-29T12:26:26;2.20;99.90
19888;DHT22;10106;51.332;12.336;2023-01-29T12:32:38;2.40;99.90
19888;DHT22;10106;51.332;12.336;2023-01-29T12:35:11;2.50;99.90
19888;DHT22;10106;51.332;12.336;2023-01-29T12:37:54;2.70;99.90
19888;DHT22;10106;51.332;12.336;2023-01-29T12:40:25;2.80;99.90
19888;DHT22;10106;51.332;12.336;2023-01-29T12:42:55;2.80;99.90
19888;DHT22;10106;51.332;12.336;2023-01-29T12:45:24;2.90;99.90
19888;DHT22;10106;51.332;12.336;2023-01-29T12:48:01;2.80;99.90
19888;DHT22;10106;51.332;12.336;2023-01-29T12:50:32;2.80;99.90
19888;DHT22;10106;51.332;12.336;2023-01-29T12:53:06;2.80;99.90
19888;DHT22;10106;51.332;12.336;2023-01-29T12:55:44;2.90;99.90
19888;DHT22;10106;51.332;12.336;2023-01-29T12:58:21;2.90;99.90
19888;DHT22;10106;51.332;12.336;2023-01-29T13:00:51;2.90;99.90
19888;DHT22;10106;51.332;12.336;2023-01-29T13:03:31;2.80;99.90
19888;DHT22;10106;51.332;12.336;2023-01-29T13:06:03;2.80;99.90
19888;DHT22;10106;51.332;12.336;2023-01-29T13:09:03;2.70;99.90
19888;DHT22;10106;51.332;12.336;2023-01-29T13:11:38;2.80;99.90
19888;DHT22;10106;51.332;12.336;2023-01-29T13:14:23;2.80;99.90
19888;DHT22;10106;51.332;12.336;2023-01-29T13:16:56;2.80;99.90
19888;DHT22;10106;51.332;12.336;2023-01-29T13:19:30;2.80;99.90
19888;DHT22;10106;51.332;12.336;2023-01-29T13:22:01;2.70;99.90
19888;DHT22;10106;51.332;12.336;2023-01-29T13:24:38;2.70;99.90
19888;DHT22;10106;51.332;12.336;2023-01-29T13:27:05;2.50;99.90
19888;DHT22;10106;51.332;12.336;2023-01-29T13:29:32;2.60;99.90
19888;DHT22;10106;51.332;12.336;2023-01-29T13:32:00;2.60;99.90
19888;DHT22;10106;51.332;12.336;2023-01-29T13:34:30;2.50;99.90
19888;DHT22;10106;51.332;12.336;2023-01-29T13:37:00;2.60;99.90
19888;DHT22;10106;51.332;12.336;2023-01-29T13:39:31;2.60;99.90
19888;DHT22;10106;51.332;12.336;2023-01-29T13:41:59;2.60;99.90
19888;DHT22;10106;51.332;12.336;2023-01-29T13:44:38;2.50;99.90
19888;DHT22;10106;51.332;12.336;2023-01-29T13:47:07;2.40;99.90
19888;DHT22;10106;51.332;12.336;2023-01-29T13:52:20;2.40;99.90
19888;DHT22;10106;51.332;12.336;2023-01-29T13:55:04;2.40;99.90
19888;DHT22;10106;51.332;12.336;2023-01-29T14:07:58;2.30;99.90
19888;DHT22;10106;51.332;12.336;2023-01-29T14:10:25;2.20;99.90
19888;DHT22;10106;51.332;12.336;2023-01-29T14:15:37;2.20;99.90
19888;DHT22;10106;51.332;12.336;2023-01-29T14:18:18;2.20;99.90
19888;DHT22;10106;51.332;12.336;2023-01-29T14:20:58;2.20;99.90
19888;DHT22;10106;51.332;12.336;2023-01-29T14:23:34;2.20;99.90
19888;DHT22;10106;51.332;12.336;2023-01-29T14:26:03;2.10;99.90
19888;DHT22;10106;51.332;12.336;2023-01-29T14:28:31;2.00;99.90
19888;DHT22;10106;51.332;12.336;2023-01-29T14:30:58;2.00;99.90
19888;DHT22;10106;51.332;12.336;2023-01-29T14:33:39;2.00;99.90
19888;DHT22;10106;51.332;12.336;2023-01-29T14:36:11;1.90;99.90
19888;DHT22;10106;51.332;12.336;2023-01-29T14:38:38;1.80;99.90
19888;DHT22;10106;51.332;12.336;2023-01-29T14:41:13;1.80;99.90
19888;DHT22;10106;51.332;12.336;2023-01-29T14:43:40;1.80;99.90
19888;DHT22;10106;51.332;12.336;2023-01-29T14:46:46;1.70;99.90
19888;DHT22;10106;51.332;12.336;2023-01-29T14:49:10;1.70;99.90
19888;DHT22;10106;51.332;12.336;2023-01-29T14:51:39;1.70;99.90
19888;DHT22;10106;51.332;12.336;2023-01-29T14:54:24;1.60;99.90
19888;DHT22;10106;51.332;12.336;2023-01-29T14:56:59;1.50;99.90
19888;DHT22;10106;51.332;12.336;2023-01-29T15:02:22;1.40;99.90
19888;DHT22;10106;51.332;12.336;2023-01-29T15:04:54;1.40;99.90
19888;DHT22;10106;51.332;12.336;2023-01-29T15:07:31;1.30;99.90
19888;DHT22;10106;51.332;12.336;2023-01-29T15:10:19;1.20;99.90
19888;DHT22;10106;51.332;12.336;2023-01-29T15:13:12;1.20;99.90
19888;DHT22;10106;51.332;12.336;2023-01-29T15:15:56;1.20;99.90
19888;DHT22;10106;51.332;12.336;2023-01-29T15:21:10;1.10;99.90
19888;DHT22;10106;51.332;12.336;2023-01-29T15:23:36;1.10;99.90
19888;DHT22;10106;51.332;12.336;2023-01-29T15:26:05;1.10;99.90
19888;DHT22;10106;51.332;12.336;2023-01-29T15:28:34;1.10;99.90
19888;DHT22;10106;51.332;12.336;2023-01-29T15:31:02;1.10;99.90
19888;DHT22;10106;51.332;12.336;2023-01-29T15:33:29;1.00;99.90
19888;DHT22;10106;51.332;12.336;2023-01-29T15:36:00;1.10;99.90
19888;DHT22;10106;51.332;12.336;2023-01-29T15:38:27;1.00;99.90
19888;DHT22;10106;51.332;12.336;2023-01-29T15:43:26;1.00;99.90
19888;DHT22;10106;51.332;12.336;2023-01-29T15:45:58;1.00;99.90
19888;DHT22;10106;51.332;12.336;2023-01-29T15:48:30;1.00;99.90
19888;DHT22;10106;51.332;12.336;2023-01-29T15:50:57;1.00;99.90
19888;DHT22;10106;51.332;12.336;2023-01-29T15:53:34;1.00;99.90
19888;DHT22;10106;51.332;12.336;2023-01-29T15:56:00;0.90;99.90
19888;DHT22;10106;51.332;12.336;2023-01-29T15:58:30;0.90;99.90
19888;DHT22;10106;51.332;12.336;2023-01-29T16:00:58;0.90;99.90
19888;DHT22;10106;51.332;12.336;2023-01-29T16:03:26;0.90;99.90
19888;DHT22;10106;51.332;12.336;2023-01-29T16:05:55;0.90;99.90
19888;DHT22;10106;51.332;12.336;2023-01-29T16:08:24;0.90;99.90
19888;DHT22;10106;51.332;12.336;2023-01-29T16:10:56;0.90;99.90
19888;DHT22;10106;51.332;12.336;2023-01-29T16:13:31;0.90;99.90
19888;DHT22;10106;51.332;12.336;2023-01-29T16:16:03;0.80;99.90
19888;DHT22;10106;51.332;12.336;2023-01-29T16:18:35;0.90;99.90
19888;DHT22;10106;51.332;12.336;2023-01-29T16:21:08;0.90;99.90
19888;DHT22;10106;51.332;12.336;2023-01-29T16:23:46;0.90;99.90
19888;DHT22;10106;51.332;12.336;2023-01-29T16:26:23;0.80;99.90
19888;DHT22;10106;51.332;12.336;2023-01-29T16:28:49;0.80;99.90
19888;DHT22;10106;51.332;12.336;2023-01-29T16:31:41;0.80;99.90
19888;DHT22;10106;51.332;12.336;2023-01-29T16:36:45;0.80;99.90
19888;DHT22;10106;51.332;12.336;2023-01-29T16:39:18;0.80;99.90
19888;DHT22;10106;51.332;12.336;2023-01-29T16:44:35;0.80;99.90
19888;DHT22;10106;51.332;12.336;2023-01-29T16:47:13;0.80;99.90
19888;DHT22;10106;51.332;12.336;2023-01-29T16:52:31;0.80;99.90
19888;DHT22;10106;51.332;12.336;2023-01-29T16:55:16;0.80;99.90
19888;DHT22;10106;51.332;12.336;2023-01-29T16:57:52;0.80;99.90
19888;DHT22;10106;51.332;12.336;2023-01-29T17:00:26;0.80;99.90
19888;DHT22;10106;51.332;12.336;2023-01-29T17:03:05;0.80;99.90
19888;DHT22;10106;51.332;12.336;2023-01-29T17:05:35;0.80;99.90
19888;DHT22;10106;51.332;12.336;2023-01-29T17:08:02;0.80;99.90
19888;DHT22;10106;51.332;12.336;2023-01-29T17:10:29;0.80;99.90
19888;DHT22;10106;51.332;12.336;2023-01-29T17:13:06;0.80;99.90
19888;DHT22;10106;51.332;12.336;2023-01-29T17:20:41;0.80;99.90
19888;DHT22;10106;51.332;12.336;2023-01-29T17:23:07;0.80;99.90
19888;DHT22;10106;51.332;12.336;2023-01-29T17:25:33;0.80;99.90
19888;DHT22;10106;51.332;12.336;2023-01-29T17:28:02;0.80;99.90
19888;DHT22;10106;51.332;12.336;2023-01-29T17:30:31;0.80;99.90
19888;DHT22;10106;51.332;12.336;2023-01-29T17:32:59;0.90;99.90
19888;DHT22;10106;51.332;12.336;2023-01-29T17:35:27;0.90;99.90
19888;DHT22;10106;51.332;12.336;2023-01-29T17:37:52;0.90;99.90
19888;DHT22;10106;51.332;12.336;2023-01-29T17:40:40;0.90;99.90
19888;DHT22;10106;51.332;12.336;2023-01-29T17:43:07;0.90;99.90
19888;DHT22;10106;51.332;12.336;2023-01-29T17:45:36;0.90;99.90
19888;DHT22;10106;51.332;12.336;2023-01-29T17:48:03;0.90;99.90
19888;DHT22;10106;51.332;12.336;2023-01-29T17:50:30;0.90;99.90
19888;DHT22;10106;51.332;12.336;2023-01-29T17:52:56;0.90;99.90
19888;DHT22;10106;51.332;12.336;2023-01-29T17:55:22;0.80;99.90
19888;DHT22;10106;51.332;12.336;2023-01-29T17:57:48;0.90;99.90
19888;DHT22;10106;51.332;12.336;2023-01-29T18:00:20;0.80;99.90
19888;DHT22;10106;51.332;12.336;2023-01-29T18:02:47;0.90;99.90
19888;DHT22;10106;51.332;12.336;2023-01-29T18:05:14;0.80;99.90
19888;DHT22;10106;51.332;12.336;2023-01-29T18:07:41;0.80;99.90
19888;DHT22;10106;51.332;12.336;2023-01-29T18:10:19;0.80;99.90
19888;DHT22;10106;51.332;12.336;2023-01-29T18:12:46;0.80;99.90
19888;DHT22;10106;51.332;12.336;2023-01-29T18:15:12;0.80;99.90
19888;DHT22;10106;51.332;12.336;2023-01-29T18:17:38;0.80;99.90